sensor_id;sensor_type;location;lat;lon;timestamp;P1;durP1;ratioP1;P2;durP2;ratioP2
37411;SDS011;23278;52.110;6.050;2023-11-21T00:01:41;19.90;;;11.18;;
37411;SDS011;23278;52.110;6.050;2023-11-21T00:04:07;29.23;;;11.35;;
37411;SDS011;23278;52.110;6.050;2023-11-21T00:06:33;20.92;;;9.30;;
37411;SDS011;23278;52.110;6.050;2023-11-21T00:08:59;24.90;;;10.98;;
37411;SDS011;23278;52.110;6.050;2023-11-21T00:11:25;21.90;;;10.88;;
37411;SDS011;23278;52.110;6.050;2023-11-21T00:13:51;32.17;;;12.93;;
37411;SDS011;23278;52.110;6.050;2023-11-21T00:16:17;30.00;;;13.30;;
37411;SDS011;23278;52.110;6.050;2023-11-21T00:18:44;27.30;;;12.30;;
37411;SDS011;23278;52.110;6.050;2023-11-21T00:21:11;33.92;;;14.55;;
37411;SDS011;23278;52.110;6.050;2023-11-21T00:23:38;43.70;;;16.98;;
37411;SDS011;23278;52.110;6.050;2023-11-21T00:26:04;41.53;;;16.38;;
37411;SDS011;23278;52.110;6.050;2023-11-21T00:28:30;33.00;;;14.25;;
37411;SDS011;23278;52.110;6.050;2023-11-21T00:30:55;29.85;;;14.13;;
37411;SDS011;23278;52.110;6.050;2023-11-21T00:33:21;32.80;;;15.82;;
37411;SDS011;23278;52.110;6.050;2023-11-21T00:35:47;37.50;;;16.20;;
37411;SDS011;23278;52.110;6.050;2023-11-21T00:38:13;34.92;;;14.45;;
37411;SDS011;23278;52.110;6.050;2023-11-21T00:40:39;29.50;;;14.10;;
37411;SDS011;23278;52.110;6.050;2023-11-21T00:43:05;29.95;;;14.00;;
37411;SDS011;23278;52.110;6.050;2023-11-21T00:45:30;31.85;;;14.15;;
37411;SDS011;23278;52.110;6.050;2023-11-21T00:47:56;35.97;;;13.93;;
37411;SDS011;23278;52.110;6.050;2023-11-21T00:50:23;35.80;;;15.48;;
37411;SDS011;23278;52.110;6.050;2023-11-21T00:52:49;30.67;;;14.52;;
37411;SDS011;23278;52.110;6.050;2023-11-21T00:55:17;34.30;;;14.63;;
37411;SDS011;23278;52.110;6.050;2023-11-21T00:57:43;32.42;;;13.70;;
37411;SDS011;23278;52.110;6.050;2023-11-21T01:00:09;30.20;;;12.63;;
37411;SDS011;23278;52.110;6.050;2023-11-21T01:02:44;28.38;;;13.15;;
37411;SDS011;23278;52.110;6.050;2023-11-21T01:05:10;26.67;;;12.23;;
37411;SDS011;23278;52.110;6.050;2023-11-21T01:07:36;23.25;;;11.48;;
37411;SDS011;23278;52.110;6.050;2023-11-21T01:10:03;27.30;;;12.57;;
37411;SDS011;23278;52.110;6.050;2023-11-21T01:12:34;27.90;;;12.65;;
37411;SDS011;23278;52.110;6.050;2023-11-21T01:15:01;27.30;;;12.75;;
37411;SDS011;23278;52.110;6.050;2023-11-21T01:17:28;31.67;;;12.90;;
37411;SDS011;23278;52.110;6.050;2023-11-21T01:19:53;24.98;;;11.02;;
37411;SDS011;23278;52.110;6.050;2023-11-21T01:22:19;28.75;;;12.40;;
37411;SDS011;23278;52.110;6.050;2023-11-21T01:24:51;24.13;;;11.52;;
37411;SDS011;23278;52.110;6.050;2023-11-21T01:27:21;25.83;;;10.98;;
37411;SDS011;23278;52.110;6.050;2023-11-21T01:29:47;27.17;;;12.40;;
37411;SDS011;23278;52.110;6.050;2023-11-21T01:32:13;24.85;;;11.82;;
37411;SDS011;23278;52.110;6.050;2023-11-21T01:34:38;21.63;;;10.60;;
37411;SDS011;23278;52.110;6.050;2023-11-21T01:37:05;21.75;;;10.02;;
37411;SDS011;23278;52.110;6.050;2023-11-21T01:39:31;30.98;;;11.45;;
37411;SDS011;23278;52.110;6.050;2023-11-21T01:41:57;23.23;;;10.50;;
37411;SDS011;23278;52.110;6.050;2023-11-21T01:44:26;11.45;;;6.97;;
37411;SDS011;23278;52.110;6.050;2023-11-21T01:46:52;19.35;;;9.23;;
37411;SDS011;23278;52.110;6.050;2023-11-21T01:49:19;17.63;;;9.23;;
37411;SDS011;23278;52.110;6.050;2023-11-21T01:51:46;20.92;;;9.55;;
37411;SDS011;23278;52.110;6.050;2023-11-21T01:54:15;21.27;;;9.30;;
37411;SDS011;23278;52.110;6.050;2023-11-21T01:56:46;17.85;;;8.60;;
37411;SDS011;23278;52.110;6.050;2023-11-21T01:59:13;17.83;;;8.88;;
37411;SDS011;23278;52.110;6.050;2023-11-21T02:01:46;23.77;;;9.23;;
37411;SDS011;23278;52.110;6.050;2023-11-21T02:04:13;17.80;;;8.02;;
37411;SDS011;23278;52.110;6.050;2023-11-21T02:06:39;13.13;;;6.50;;
37411;SDS011;23278;52.110;6.050;2023-11-21T02:09:05;20.05;;;9.20;;
37411;SDS011;23278;52.110;6.050;2023-11-21T02:11:31;22.13;;;8.45;;
37411;SDS011;23278;52.110;6.050;2023-11-21T02:14:00;21.67;;;10.52;;
37411;SDS011;23278;52.110;6.050;2023-11-21T02:16:27;19.77;;;8.45;;
37411;SDS011;23278;52.110;6.050;2023-11-21T02:18:56;16.20;;;8.15;;
37411;SDS011;23278;52.110;6.050;2023-11-21T02:21:24;18.42;;;7.55;;
37411;SDS011;23278;52.110;6.050;2023-11-21T02:23:51;19.58;;;9.35;;
37411;SDS011;23278;52.110;6.050;2023-11-21T02:26:16;28.90;;;11.55;;
37411;SDS011;23278;52.110;6.050;2023-11-21T02:28:42;31.92;;;13.73;;
37411;SDS011;23278;52.110;6.050;2023-11-21T02:31:08;27.77;;;11.85;;
37411;SDS011;23278;52.110;6.050;2023-11-21T02:33:34;18.10;;;9.63;;
37411;SDS011;23278;52.110;6.050;2023-11-21T02:36:00;25.08;;;11.23;;
37411;SDS011;23278;52.110;6.050;2023-11-21T02:38:27;25.70;;;11.00;;
37411;SDS011;23278;52.110;6.050;2023-11-21T02:40:53;27.95;;;10.90;;
37411;SDS011;23278;52.110;6.050;2023-11-21T02:43:19;27.50;;;11.38;;
37411;SDS011;23278;52.110;6.050;2023-11-21T02:45:44;18.33;;;10.10;;
37411;SDS011;23278;52.110;6.050;2023-11-21T02:48:11;20.30;;;10.52;;
37411;SDS011;23278;52.110;6.050;2023-11-21T02:50:37;22.88;;;11.27;;
37411;SDS011;23278;52.110;6.050;2023-11-21T02:53:03;21.48;;;10.10;;
37411;SDS011;23278;52.110;6.050;2023-11-21T02:55:31;22.70;;;11.38;;
37411;SDS011;23278;52.110;6.050;2023-11-21T02:58:00;17.80;;;9.60;;
37411;SDS011;23278;52.110;6.050;2023-11-21T03:00:26;25.83;;;11.20;;
37411;SDS011;23278;52.110;6.050;2023-11-21T03:02:54;19.65;;;9.02;;
37411;SDS011;23278;52.110;6.050;2023-11-21T03:05:22;17.33;;;9.00;;
37411;SDS011;23278;52.110;6.050;2023-11-21T03:07:48;19.13;;;8.82;;
37411;SDS011;23278;52.110;6.050;2023-11-21T03:10:13;15.40;;;7.70;;
37411;SDS011;23278;52.110;6.050;2023-11-21T03:12:39;15.98;;;7.32;;
37411;SDS011;23278;52.110;6.050;2023-11-21T03:15:06;14.93;;;7.75;;
37411;SDS011;23278;52.110;6.050;2023-11-21T03:17:32;12.70;;;6.97;;
37411;SDS011;23278;52.110;6.050;2023-11-21T03:20:03;21.08;;;9.45;;
37411;SDS011;23278;52.110;6.050;2023-11-21T03:22:29;19.35;;;9.35;;
37411;SDS011;23278;52.110;6.050;2023-11-21T03:24:55;19.88;;;8.63;;
37411;SDS011;23278;52.110;6.050;2023-11-21T03:27:21;19.17;;;9.13;;
37411;SDS011;23278;52.110;6.050;2023-11-21T03:29:47;17.98;;;9.20;;
37411;SDS011;23278;52.110;6.050;2023-11-21T03:32:15;17.25;;;8.48;;
37411;SDS011;23278;52.110;6.050;2023-11-21T03:34:57;17.88;;;8.25;;
37411;SDS011;23278;52.110;6.050;2023-11-21T03:37:23;17.90;;;8.10;;
37411;SDS011;23278;52.110;6.050;2023-11-21T03:39:50;15.77;;;7.85;;
37411;SDS011;23278;52.110;6.050;2023-11-21T03:42:16;12.68;;;7.28;;
37411;SDS011;23278;52.110;6.050;2023-11-21T03:44:42;22.60;;;9.18;;
37411;SDS011;23278;52.110;6.050;2023-11-21T03:47:08;23.45;;;7.53;;
37411;SDS011;23278;52.110;6.050;2023-11-21T03:49:34;18.55;;;8.13;;
37411;SDS011;23278;52.110;6.050;2023-11-21T03:52:00;16.98;;;7.70;;
37411;SDS011;23278;52.110;6.050;2023-11-21T03:54:25;14.85;;;7.60;;
37411;SDS011;23278;52.110;6.050;2023-11-21T03:56:51;17.02;;;8.18;;
37411;SDS011;23278;52.110;6.050;2023-11-21T03:59:17;26.55;;;10.23;;
37411;SDS011;23278;52.110;6.050;2023-11-21T04:01:43;25.67;;;10.50;;
37411;SDS011;23278;52.110;6.050;2023-11-21T04:04:09;23.48;;;9.88;;
37411;SDS011;23278;52.110;6.050;2023-11-21T04:06:35;18.20;;;10.02;;
37411;SDS011;23278;52.110;6.050;2023-11-21T04:09:01;18.63;;;8.07;;
37411;SDS011;23278;52.110;6.050;2023-11-21T04:11:29;16.63;;;8.07;;
37411;SDS011;23278;52.110;6.050;2023-11-21T04:13:55;15.77;;;8.02;;
37411;SDS011;23278;52.110;6.050;2023-11-21T04:16:21;18.65;;;7.47;;
37411;SDS011;23278;52.110;6.050;2023-11-21T04:18:47;17.90;;;7.18;;
37411;SDS011;23278;52.110;6.050;2023-11-21T04:21:13;11.63;;;6.03;;
37411;SDS011;23278;52.110;6.050;2023-11-21T04:23:39;12.82;;;6.50;;
37411;SDS011;23278;52.110;6.050;2023-11-21T04:26:05;14.27;;;7.22;;
37411;SDS011;23278;52.110;6.050;2023-11-21T04:28:31;14.02;;;6.78;;
37411;SDS011;23278;52.110;6.050;2023-11-21T04:30:57;10.60;;;5.68;;
37411;SDS011;23278;52.110;6.050;2023-11-21T04:33:23;13.48;;;6.85;;
37411;SDS011;23278;52.110;6.050;2023-11-21T04:35:50;13.57;;;6.40;;
37411;SDS011;23278;52.110;6.050;2023-11-21T04:38:17;16.15;;;6.93;;
37411;SDS011;23278;52.110;6.050;2023-11-21T04:40:44;14.35;;;7.38;;
37411;SDS011;23278;52.110;6.050;2023-11-21T04:43:10;12.82;;;7.10;;
37411;SDS011;23278;52.110;6.050;2023-11-21T04:45:35;13.60;;;6.28;;
37411;SDS011;23278;52.110;6.050;2023-11-21T04:48:01;8.98;;;5.20;;
37411;SDS011;23278;52.110;6.050;2023-11-21T04:50:27;12.57;;;5.85;;
37411;SDS011;23278;52.110;6.050;2023-11-21T04:52:53;18.33;;;6.63;;
37411;SDS011;23278;52.110;6.050;2023-11-21T04:55:19;12.70;;;6.80;;
37411;SDS011;23278;52.110;6.050;2023-11-21T04:57:45;13.40;;;5.75;;
37411;SDS011;23278;52.110;6.050;2023-11-21T05:00:12;15.00;;;6.63;;
37411;SDS011;23278;52.110;6.050;2023-11-21T05:02:39;21.88;;;7.80;;
37411;SDS011;23278;52.110;6.050;2023-11-21T05:05:06;16.10;;;7.65;;
37411;SDS011;23278;52.110;6.050;2023-11-21T05:07:35;16.20;;;7.47;;
37411;SDS011;23278;52.110;6.050;2023-11-21T05:10:03;15.57;;;7.38;;
37411;SDS011;23278;52.110;6.050;2023-11-21T05:12:33;12.23;;;5.85;;
37411;SDS011;23278;52.110;6.050;2023-11-21T05:15:02;17.33;;;5.50;;
37411;SDS011;23278;52.110;6.050;2023-11-21T05:17:33;19.25;;;8.98;;
37411;SDS011;23278;52.110;6.050;2023-11-21T05:20:00;22.90;;;7.88;;
37411;SDS011;23278;52.110;6.050;2023-11-21T05:22:34;13.32;;;6.50;;
37411;SDS011;23278;52.110;6.050;2023-11-21T05:25:00;14.00;;;5.95;;
37411;SDS011;23278;52.110;6.050;2023-11-21T05:27:26;14.05;;;7.22;;
37411;SDS011;23278;52.110;6.050;2023-11-21T05:29:52;16.67;;;6.47;;
37411;SDS011;23278;52.110;6.050;2023-11-21T05:32:18;14.88;;;5.72;;
37411;SDS011;23278;52.110;6.050;2023-11-21T05:34:44;14.35;;;4.70;;
37411;SDS011;23278;52.110;6.050;2023-11-21T05:37:10;16.98;;;6.03;;
37411;SDS011;23278;52.110;6.050;2023-11-21T05:39:35;16.63;;;6.50;;
37411;SDS011;23278;52.110;6.050;2023-11-21T05:42:01;17.23;;;6.97;;
37411;SDS011;23278;52.110;6.050;2023-11-21T05:44:29;17.73;;;7.03;;
37411;SDS011;23278;52.110;6.050;2023-11-21T05:46:55;9.48;;;5.22;;
37411;SDS011;23278;52.110;6.050;2023-11-21T05:49:21;24.35;;;7.03;;
37411;SDS011;23278;52.110;6.050;2023-11-21T05:51:47;12.30;;;7.55;;
37411;SDS011;23278;52.110;6.050;2023-11-21T05:54:13;11.20;;;6.95;;
37411;SDS011;23278;52.110;6.050;2023-11-21T05:56:39;15.57;;;6.95;;
37411;SDS011;23278;52.110;6.050;2023-11-21T05:59:05;15.57;;;7.53;;
37411;SDS011;23278;52.110;6.050;2023-11-21T06:01:31;14.82;;;7.03;;
37411;SDS011;23278;52.110;6.050;2023-11-21T06:03:57;14.30;;;7.93;;
37411;SDS011;23278;52.110;6.050;2023-11-21T06:06:24;28.63;;;9.95;;
37411;SDS011;23278;52.110;6.050;2023-11-21T06:08:50;20.58;;;9.45;;
37411;SDS011;23278;52.110;6.050;2023-11-21T06:11:17;20.17;;;9.10;;
37411;SDS011;23278;52.110;6.050;2023-11-21T06:13:43;18.17;;;8.82;;
37411;SDS011;23278;52.110;6.050;2023-11-21T06:16:09;21.75;;;9.70;;
37411;SDS011;23278;52.110;6.050;2023-11-21T06:18:35;17.92;;;8.85;;
37411;SDS011;23278;52.110;6.050;2023-11-21T06:21:01;12.13;;;7.03;;
37411;SDS011;23278;52.110;6.050;2023-11-21T06:23:27;13.02;;;7.65;;
37411;SDS011;23278;52.110;6.050;2023-11-21T06:25:53;21.00;;;8.85;;
37411;SDS011;23278;52.110;6.050;2023-11-21T06:28:19;17.85;;;7.90;;
37411;SDS011;23278;52.110;6.050;2023-11-21T06:30:45;12.02;;;6.20;;
37411;SDS011;23278;52.110;6.050;2023-11-21T06:33:11;14.45;;;7.50;;
37411;SDS011;23278;52.110;6.050;2023-11-21T06:35:36;16.55;;;8.27;;
37411;SDS011;23278;52.110;6.050;2023-11-21T06:38:02;18.73;;;8.65;;
37411;SDS011;23278;52.110;6.050;2023-11-21T06:40:28;22.80;;;9.98;;
37411;SDS011;23278;52.110;6.050;2023-11-21T06:42:54;20.02;;;8.57;;
37411;SDS011;23278;52.110;6.050;2023-11-21T06:45:20;24.20;;;11.60;;
37411;SDS011;23278;52.110;6.050;2023-11-21T06:47:46;22.83;;;11.45;;
37411;SDS011;23278;52.110;6.050;2023-11-21T06:50:13;20.08;;;9.73;;
37411;SDS011;23278;52.110;6.050;2023-11-21T06:52:39;18.08;;;9.30;;
37411;SDS011;23278;52.110;6.050;2023-11-21T06:55:05;20.10;;;9.77;;
37411;SDS011;23278;52.110;6.050;2023-11-21T06:57:33;19.90;;;9.73;;
37411;SDS011;23278;52.110;6.050;2023-11-21T07:00:00;21.38;;;8.85;;
37411;SDS011;23278;52.110;6.050;2023-11-21T07:02:26;26.58;;;11.15;;
37411;SDS011;23278;52.110;6.050;2023-11-21T07:04:52;21.65;;;10.57;;
37411;SDS011;23278;52.110;6.050;2023-11-21T07:07:18;16.60;;;8.50;;
37411;SDS011;23278;52.110;6.050;2023-11-21T07:09:44;25.95;;;11.68;;
37411;SDS011;23278;52.110;6.050;2023-11-21T07:12:10;24.35;;;11.38;;
37411;SDS011;23278;52.110;6.050;2023-11-21T07:14:36;18.20;;;10.02;;
37411;SDS011;23278;52.110;6.050;2023-11-21T07:17:04;24.00;;;11.98;;
37411;SDS011;23278;52.110;6.050;2023-11-21T07:19:30;21.55;;;10.68;;
37411;SDS011;23278;52.110;6.050;2023-11-21T07:21:56;16.45;;;8.38;;
37411;SDS011;23278;52.110;6.050;2023-11-21T07:24:22;17.70;;;8.73;;
37411;SDS011;23278;52.110;6.050;2023-11-21T07:26:48;18.63;;;9.93;;
37411;SDS011;23278;52.110;6.050;2023-11-21T07:29:14;27.52;;;12.73;;
37411;SDS011;23278;52.110;6.050;2023-11-21T07:31:40;18.92;;;10.25;;
37411;SDS011;23278;52.110;6.050;2023-11-21T07:34:06;21.80;;;11.10;;
37411;SDS011;23278;52.110;6.050;2023-11-21T07:36:33;22.48;;;9.75;;
37411;SDS011;23278;52.110;6.050;2023-11-21T07:39:00;21.38;;;10.55;;
37411;SDS011;23278;52.110;6.050;2023-11-21T07:41:27;20.30;;;9.98;;
37411;SDS011;23278;52.110;6.050;2023-11-21T07:43:54;18.42;;;9.90;;
37411;SDS011;23278;52.110;6.050;2023-11-21T07:46:21;24.52;;;11.70;;
37411;SDS011;23278;52.110;6.050;2023-11-21T07:48:47;23.35;;;10.25;;
37411;SDS011;23278;52.110;6.050;2023-11-21T07:51:13;19.60;;;10.07;;
37411;SDS011;23278;52.110;6.050;2023-11-21T07:53:39;24.50;;;10.75;;
37411;SDS011;23278;52.110;6.050;2023-11-21T07:56:06;24.73;;;9.65;;
37411;SDS011;23278;52.110;6.050;2023-11-21T07:58:34;20.92;;;10.90;;
37411;SDS011;23278;52.110;6.050;2023-11-21T08:01:01;16.90;;;9.68;;
37411;SDS011;23278;52.110;6.050;2023-11-21T08:03:28;22.88;;;9.65;;
37411;SDS011;23278;52.110;6.050;2023-11-21T08:05:57;20.35;;;10.02;;
37411;SDS011;23278;52.110;6.050;2023-11-21T08:08:24;19.02;;;10.23;;
37411;SDS011;23278;52.110;6.050;2023-11-21T08:10:51;19.27;;;9.50;;
37411;SDS011;23278;52.110;6.050;2023-11-21T08:13:23;20.02;;;10.05;;
37411;SDS011;23278;52.110;6.050;2023-11-21T08:15:50;21.33;;;10.63;;
37411;SDS011;23278;52.110;6.050;2023-11-21T08:18:19;22.77;;;10.68;;
37411;SDS011;23278;52.110;6.050;2023-11-21T08:20:45;26.52;;;11.10;;
37411;SDS011;23278;52.110;6.050;2023-11-21T08:23:13;25.60;;;11.68;;
37411;SDS011;23278;52.110;6.050;2023-11-21T08:25:41;18.60;;;9.77;;
37411;SDS011;23278;52.110;6.050;2023-11-21T08:28:10;23.00;;;10.40;;
37411;SDS011;23278;52.110;6.050;2023-11-21T08:30:36;23.52;;;10.43;;
37411;SDS011;23278;52.110;6.050;2023-11-21T08:33:02;24.27;;;11.13;;
37411;SDS011;23278;52.110;6.050;2023-11-21T08:35:29;26.73;;;12.68;;
37411;SDS011;23278;52.110;6.050;2023-11-21T08:37:55;30.52;;;11.93;;
37411;SDS011;23278;52.110;6.050;2023-11-21T08:40:21;27.25;;;11.60;;
37411;SDS011;23278;52.110;6.050;2023-11-21T08:42:47;29.40;;;13.20;;
37411;SDS011;23278;52.110;6.050;2023-11-21T08:45:14;25.30;;;11.20;;
37411;SDS011;23278;52.110;6.050;2023-11-21T08:47:40;24.48;;;11.52;;
37411;SDS011;23278;52.110;6.050;2023-11-21T08:50:06;30.08;;;14.05;;
37411;SDS011;23278;52.110;6.050;2023-11-21T08:52:33;28.55;;;12.38;;
37411;SDS011;23278;52.110;6.050;2023-11-21T08:54:59;34.92;;;15.35;;
37411;SDS011;23278;52.110;6.050;2023-11-21T08:57:36;36.30;;;15.90;;
37411;SDS011;23278;52.110;6.050;2023-11-21T09:00:05;35.08;;;15.80;;
37411;SDS011;23278;52.110;6.050;2023-11-21T09:02:43;33.90;;;14.52;;
37411;SDS011;23278;52.110;6.050;2023-11-21T09:05:09;32.22;;;14.75;;
37411;SDS011;23278;52.110;6.050;2023-11-21T09:07:36;34.67;;;13.55;;
37411;SDS011;23278;52.110;6.050;2023-11-21T09:10:03;31.08;;;14.68;;
37411;SDS011;23278;52.110;6.050;2023-11-21T09:12:33;31.73;;;13.55;;
37411;SDS011;23278;52.110;6.050;2023-11-21T09:15:03;20.08;;;10.63;;
37411;SDS011;23278;52.110;6.050;2023-11-21T09:17:31;25.00;;;12.35;;
37411;SDS011;23278;52.110;6.050;2023-11-21T09:20:00;22.85;;;12.45;;
37411;SDS011;23278;52.110;6.050;2023-11-21T09:22:26;25.27;;;11.90;;
37411;SDS011;23278;52.110;6.050;2023-11-21T09:24:55;18.73;;;9.25;;
37411;SDS011;23278;52.110;6.050;2023-11-21T09:27:23;23.27;;;12.45;;
37411;SDS011;23278;52.110;6.050;2023-11-21T09:29:51;19.38;;;10.52;;
37411;SDS011;23278;52.110;6.050;2023-11-21T09:32:18;29.50;;;14.75;;
37411;SDS011;23278;52.110;6.050;2023-11-21T09:34:44;34.85;;;15.93;;
37411;SDS011;23278;52.110;6.050;2023-11-21T09:37:10;24.92;;;13.75;;
37411;SDS011;23278;52.110;6.050;2023-11-21T09:39:36;23.73;;;13.45;;
37411;SDS011;23278;52.110;6.050;2023-11-21T09:42:08;30.38;;;13.88;;
37411;SDS011;23278;52.110;6.050;2023-11-21T09:44:36;21.10;;;11.73;;
37411;SDS011;23278;52.110;6.050;2023-11-21T09:47:14;30.25;;;15.38;;
37411;SDS011;23278;52.110;6.050;2023-11-21T09:49:42;42.90;;;19.65;;
37411;SDS011;23278;52.110;6.050;2023-11-21T09:52:20;33.03;;;16.33;;
37411;SDS011;23278;52.110;6.050;2023-11-21T09:54:52;29.55;;;16.88;;
37411;SDS011;23278;52.110;6.050;2023-11-21T09:57:23;28.88;;;14.75;;
37411;SDS011;23278;52.110;6.050;2023-11-21T09:59:50;24.45;;;13.52;;
37411;SDS011;23278;52.110;6.050;2023-11-21T10:02:27;18.52;;;10.75;;
37411;SDS011;23278;52.110;6.050;2023-11-21T10:04:55;24.90;;;11.70;;
37411;SDS011;23278;52.110;6.050;2023-11-21T10:07:22;26.83;;;13.43;;
37411;SDS011;23278;52.110;6.050;2023-11-21T10:09:48;26.52;;;13.95;;
37411;SDS011;23278;52.110;6.050;2023-11-21T10:12:16;22.30;;;13.35;;
37411;SDS011;23278;52.110;6.050;2023-11-21T10:14:42;28.23;;;14.60;;
37411;SDS011;23278;52.110;6.050;2023-11-21T10:17:12;27.90;;;14.65;;
37411;SDS011;23278;52.110;6.050;2023-11-21T10:19:41;21.02;;;12.10;;
37411;SDS011;23278;52.110;6.050;2023-11-21T10:22:08;29.13;;;14.95;;
37411;SDS011;23278;52.110;6.050;2023-11-21T10:24:35;25.75;;;15.35;;
37411;SDS011;23278;52.110;6.050;2023-11-21T10:27:02;23.15;;;13.27;;
37411;SDS011;23278;52.110;6.050;2023-11-21T10:29:29;27.25;;;15.75;;
37411;SDS011;23278;52.110;6.050;2023-11-21T10:31:56;25.98;;;14.88;;
37411;SDS011;23278;52.110;6.050;2023-11-21T10:34:24;19.58;;;12.30;;
37411;SDS011;23278;52.110;6.050;2023-11-21T10:36:50;22.90;;;12.80;;
37411;SDS011;23278;52.110;6.050;2023-11-21T10:39:19;17.00;;;9.95;;
37411;SDS011;23278;52.110;6.050;2023-11-21T10:41:49;19.35;;;11.10;;
37411;SDS011;23278;52.110;6.050;2023-11-21T10:44:16;25.30;;;12.13;;
37411;SDS011;23278;52.110;6.050;2023-11-21T10:46:49;18.55;;;11.73;;
37411;SDS011;23278;52.110;6.050;2023-11-21T10:49:17;18.15;;;10.60;;
37411;SDS011;23278;52.110;6.050;2023-11-21T10:51:44;20.35;;;10.90;;
37411;SDS011;23278;52.110;6.050;2023-11-21T10:54:10;15.55;;;9.18;;
37411;SDS011;23278;52.110;6.050;2023-11-21T10:56:37;14.75;;;8.80;;
37411;SDS011;23278;52.110;6.050;2023-11-21T10:59:08;15.68;;;9.07;;
37411;SDS011;23278;52.110;6.050;2023-11-21T11:01:45;14.43;;;8.88;;
37411;SDS011;23278;52.110;6.050;2023-11-21T11:04:12;15.68;;;8.77;;
37411;SDS011;23278;52.110;6.050;2023-11-21T11:06:43;17.95;;;10.10;;
37411;SDS011;23278;52.110;6.050;2023-11-21T11:09:13;17.75;;;10.60;;
37411;SDS011;23278;52.110;6.050;2023-11-21T11:11:42;17.25;;;11.15;;
37411;SDS011;23278;52.110;6.050;2023-11-21T11:14:10;21.63;;;11.65;;
37411;SDS011;23278;52.110;6.050;2023-11-21T11:16:38;17.15;;;11.07;;
37411;SDS011;23278;52.110;6.050;2023-11-21T11:19:06;16.38;;;9.65;;
37411;SDS011;23278;52.110;6.050;2023-11-21T11:38:34;28.50;;;15.20;;
37411;SDS011;23278;52.110;6.050;2023-11-21T11:41:01;26.33;;;13.98;;
37411;SDS011;23278;52.110;6.050;2023-11-21T11:43:29;19.73;;;12.13;;
37411;SDS011;23278;52.110;6.050;2023-11-21T11:45:58;23.23;;;12.68;;
37411;SDS011;23278;52.110;6.050;2023-11-21T11:48:25;28.70;;;15.05;;
37411;SDS011;23278;52.110;6.050;2023-11-21T11:53:36;27.05;;;14.95;;
37411;SDS011;23278;52.110;6.050;2023-11-21T11:56:19;27.73;;;15.85;;
37411;SDS011;23278;52.110;6.050;2023-11-21T11:58:48;23.30;;;13.10;;
37411;SDS011;23278;52.110;6.050;2023-11-21T12:01:16;19.48;;;13.23;;
37411;SDS011;23278;52.110;6.050;2023-11-21T12:03:44;28.75;;;14.63;;
37411;SDS011;23278;52.110;6.050;2023-11-21T12:06:10;24.38;;;12.02;;
37411;SDS011;23278;52.110;6.050;2023-11-21T12:08:37;25.17;;;15.85;;
37411;SDS011;23278;52.110;6.050;2023-11-21T12:11:05;19.10;;;11.88;;
37411;SDS011;23278;52.110;6.050;2023-11-21T12:13:31;16.02;;;10.63;;
37411;SDS011;23278;52.110;6.050;2023-11-21T12:15:57;14.80;;;10.07;;
37411;SDS011;23278;52.110;6.050;2023-11-21T12:18:24;17.67;;;11.88;;
37411;SDS011;23278;52.110;6.050;2023-11-21T12:20:51;19.52;;;12.52;;
37411;SDS011;23278;52.110;6.050;2023-11-21T12:23:17;15.70;;;10.68;;
37411;SDS011;23278;52.110;6.050;2023-11-21T12:25:43;18.48;;;11.15;;
37411;SDS011;23278;52.110;6.050;2023-11-21T12:28:09;16.13;;;10.48;;
37411;SDS011;23278;52.110;6.050;2023-11-21T12:30:35;22.70;;;13.75;;
37411;SDS011;23278;52.110;6.050;2023-11-21T12:33:03;31.38;;;16.95;;
37411;SDS011;23278;52.110;6.050;2023-11-21T12:35:30;26.35;;;14.52;;
37411;SDS011;23278;52.110;6.050;2023-11-21T12:38:00;22.20;;;11.70;;
37411;SDS011;23278;52.110;6.050;2023-11-21T12:40:30;22.40;;;14.65;;
37411;SDS011;23278;52.110;6.050;2023-11-21T12:42:57;25.65;;;15.23;;
37411;SDS011;23278;52.110;6.050;2023-11-21T12:45:25;23.60;;;14.05;;
37411;SDS011;23278;52.110;6.050;2023-11-21T12:50:28;22.38;;;12.98;;
37411;SDS011;23278;52.110;6.050;2023-11-21T12:53:02;24.23;;;14.70;;
37411;SDS011;23278;52.110;6.050;2023-11-21T12:55:33;19.35;;;12.32;;
37411;SDS011;23278;52.110;6.050;2023-11-21T12:58:06;22.50;;;12.25;;
37411;SDS011;23278;52.110;6.050;2023-11-21T13:00:37;19.63;;;11.63;;
37411;SDS011;23278;52.110;6.050;2023-11-21T13:03:05;19.65;;;12.40;;
37411;SDS011;23278;52.110;6.050;2023-11-21T13:05:32;23.33;;;12.40;;
37411;SDS011;23278;52.110;6.050;2023-11-21T13:08:03;15.77;;;8.90;;
37411;SDS011;23278;52.110;6.050;2023-11-21T13:10:33;14.90;;;9.32;;
37411;SDS011;23278;52.110;6.050;2023-11-21T13:13:02;15.98;;;9.10;;
37411;SDS011;23278;52.110;6.050;2023-11-21T13:15:47;20.58;;;11.48;;
37411;SDS011;23278;52.110;6.050;2023-11-21T13:18:17;17.30;;;10.93;;
37411;SDS011;23278;52.110;6.050;2023-11-21T13:20:43;16.58;;;10.43;;
37411;SDS011;23278;52.110;6.050;2023-11-21T13:23:11;14.55;;;9.55;;
37411;SDS011;23278;52.110;6.050;2023-11-21T13:25:37;23.38;;;11.63;;
37411;SDS011;23278;52.110;6.050;2023-11-21T13:28:06;16.67;;;10.05;;
37411;SDS011;23278;52.110;6.050;2023-11-21T13:30:33;17.83;;;10.13;;
37411;SDS011;23278;52.110;6.050;2023-11-21T13:33:00;17.20;;;11.32;;
37411;SDS011;23278;52.110;6.050;2023-11-21T13:35:36;19.30;;;10.70;;
37411;SDS011;23278;52.110;6.050;2023-11-21T13:38:07;17.35;;;10.82;;
37411;SDS011;23278;52.110;6.050;2023-11-21T13:40:34;12.90;;;8.68;;
37411;SDS011;23278;52.110;6.050;2023-11-21T13:43:12;14.98;;;8.82;;
37411;SDS011;23278;52.110;6.050;2023-11-21T13:45:39;13.20;;;9.80;;
37411;SDS011;23278;52.110;6.050;2023-11-21T13:48:06;14.52;;;9.63;;
37411;SDS011;23278;52.110;6.050;2023-11-21T13:50:36;15.30;;;10.93;;
37411;SDS011;23278;52.110;6.050;2023-11-21T13:53:02;15.70;;;9.65;;
37411;SDS011;23278;52.110;6.050;2023-11-21T13:55:46;16.30;;;10.40;;
37411;SDS011;23278;52.110;6.050;2023-11-21T13:58:13;11.63;;;8.40;;
37411;SDS011;23278;52.110;6.050;2023-11-21T14:00:45;15.05;;;9.10;;
37411;SDS011;23278;52.110;6.050;2023-11-21T14:03:11;21.30;;;11.50;;
37411;SDS011;23278;52.110;6.050;2023-11-21T14:05:50;16.38;;;10.52;;
37411;SDS011;23278;52.110;6.050;2023-11-21T14:08:19;17.27;;;11.07;;
37411;SDS011;23278;52.110;6.050;2023-11-21T14:10:50;19.83;;;11.45;;
37411;SDS011;23278;52.110;6.050;2023-11-21T14:13:21;17.50;;;11.70;;
37411;SDS011;23278;52.110;6.050;2023-11-21T14:15:48;17.15;;;11.07;;
37411;SDS011;23278;52.110;6.050;2023-11-21T14:18:17;14.20;;;10.20;;
37411;SDS011;23278;52.110;6.050;2023-11-21T14:20:51;10.57;;;8.30;;
37411;SDS011;23278;52.110;6.050;2023-11-21T14:23:17;13.35;;;10.07;;
37411;SDS011;23278;52.110;6.050;2023-11-21T14:25:43;19.02;;;11.45;;
37411;SDS011;23278;52.110;6.050;2023-11-21T14:28:09;17.35;;;12.15;;
37411;SDS011;23278;52.110;6.050;2023-11-21T14:30:37;20.52;;;12.60;;
37411;SDS011;23278;52.110;6.050;2023-11-21T14:33:05;19.85;;;13.32;;
37411;SDS011;23278;52.110;6.050;2023-11-21T14:35:33;15.73;;;12.13;;
37411;SDS011;23278;52.110;6.050;2023-11-21T14:37:59;18.20;;;13.30;;
37411;SDS011;23278;52.110;6.050;2023-11-21T14:40:27;21.90;;;17.10;;
37411;SDS011;23278;52.110;6.050;2023-11-21T14:42:58;19.13;;;15.15;;
37411;SDS011;23278;52.110;6.050;2023-11-21T14:45:25;20.13;;;14.63;;
37411;SDS011;23278;52.110;6.050;2023-11-21T14:47:52;19.38;;;14.15;;
37411;SDS011;23278;52.110;6.050;2023-11-21T14:50:34;17.65;;;15.45;;